Rome, Wisconsin
Current Conditions -  °F | °C
As of 3:54 PM on Saturday 20 Dec 2014 (Local Time) from KISW Reporting Station
Overcast Overcast  
Wind Chill: -4°   Ceiling: 1900
Heat Index: -1°   Visibility: 8mi
Dew Point: -4°   Wind: 6mph
Humidity: 76%   Direction: 150°SSE
Pressure: 30.2"   Gusts: NA
Location:  44.252°N, 89.9853°W
Report Text: KISW 202154Z AUTO 15005KT 8SM OVC019 M01/M04 A3020 RMK AO2 SLP241 T10061044
Loading
Personal Weather Stations






























Interactive Weather Map New forecast layout! Learn more

10-Day Weather Forecast

Advertisements
Track Severe Weather on mobile